Arlington, MS

6:24 AM CDT on May 25, 2015 (GMT -0500)
Downtown (Perkins Bldg) | | Change Station
CLOSE
Current Station
Personal Weather Station
Location: Brookhaven, MS
Elevation: 473 ft
Nearby Weather Stations

Elev 473 ft 31.58 °N, 90.44 °W | Updated 2 minutes ago

Mostly Cloudy
Mostly Cloudy
70.3 °F
Feels Like 70.3 °F
N
26.6
Wind Variable Wind from East

Today
High -- | Low -- °F
--% Chance of Precip.
Yesterday
High -- | Low -- °F
Precip. -- in
6:00 AM 7:57 PM
Waxing Crescent, 48% visible
Pressure 30.07 in
Visibility 2.5 miles
Clouds Few 1900 ft
Dew Point 68 °F
Humidity 91%
Rainfall 0.00 in
Snow Depth Not available.
UV 0 out of 12
Pollen 2.80 out of 12
Air Quality Not available.
Flu Activity No Activity
METAR K1R7 251115Z AUTO 00000KT 2 1/2SM BR FEW019 20/20 A3007 RMK AO2

More Conditions Fewer Conditions

Pressure 30.07 in
Visibility 2.5 miles
Clouds Few 1900 ft
Dew Point 68 °F
Humidity 91%
Rainfall 0.00 in
Snow Depth Not available.
UV 0 out of 12
Pollen 2.80 out of 12
Air Quality Not available.
Flu Activity No Activity
METAR K1R7 251115Z AUTO 00000KT 2 1/2SM BR FEW019 20/20 A3007 RMK AO2

More Conditions Fewer Conditions

10-Day Weather Forecast

Almanac

Astronomy

May. 25, 2015 Rise Set
Actual Time
Civil Twilight
Nautical Twilight
Astronomical Twilight
Moon
Length of Visible Light
Length of Day
Tomorrow will be .
, % of the Moon is Illuminated

Today's Extremes

State Highs State Lows

Community

WunderPhotos

Upload Photos

1,823,980 photos uploaded!

WunderBlogs® & News

Nearby

Air Quality

  Air Quality AQ Index Pollutant
Not available.

Snow Depth

Station Depth Elevation

Earthquake Activity

City Distance Mag. Time & Date
Minimum magnitude displayed is 2.5.

Coastal Water Temperatures

Place Temperature

Stations

Nearby Weather Stations

Station Location Temp. Windchill Dew Point Humidity Wind Precip. Elev Updated Type